Time;durP1;ratioP1;P1;durP2;ratioP2;P2;SDS_P1;SDS_P2;PMS_P1;PMS_P2;Temp;Humidity;BMP_temperature;BMP_pressure;BME280_temperature;BME280_humidity;BME280_pressure;Samples;Min_cycle;Max_cycle;Signal;HPM_P1;HPM_P2
2022/11/27 00:02:19;;;;;;;21.48;6.70;;;;;;;6.68;100.00;102278.03;5027747;28;20052;-71
2022/11/27 00:04:45;;;;;;;20.23;5.55;;;;;;;6.80;100.00;102284.44;5033961;28;20059;-69
2022/11/27 00:07:12;;;;;;;24.20;6.18;;;;;;;6.84;100.00;102290.03;5030954;28;20048;-69
2022/11/27 00:09:39;;;;;;;20.10;6.00;;;;;;;6.83;100.00;102272.75;5029893;28;20059;-71
2022/11/27 00:12:06;;;;;;;20.42;6.18;;;;;;;6.92;100.00;102283.69;5025227;28;20837;-70
2022/11/27 00:14:32;;;;;;;23.40;6.22;;;;;;;6.87;100.00;102261.88;5027367;28;20723;-70
2022/11/27 00:16:59;;;;;;;20.23;5.82;;;;;;;6.92;100.00;102280.94;5028456;28;20044;-71
2022/11/27 00:19:26;;;;;;;27.08;8.18;;;;;;;6.96;100.00;102277.16;5030471;28;20064;-70
2022/11/27 00:21:53;;;;;;;21.23;5.25;;;;;;;6.96;100.00;102273.63;5024294;28;20044;-69
2022/11/27 00:24:19;;;;;;;17.55;4.65;;;;;;;6.88;100.00;102258.78;5028705;28;20587;-70
2022/11/27 00:26:48;;;;;;;21.00;4.70;;;;;;;6.91;100.00;102252.63;5026389;28;20049;-71
2022/11/27 00:29:15;;;;;;;19.02;6.45;;;;;;;7.02;100.00;102269.53;5032899;28;20869;-71
2022/11/27 00:31:41;;;;;;;15.55;4.95;;;;;;;7.01;100.00;102268.72;5025384;28;20063;-68
2022/11/27 00:34:10;;;;;;;18.30;4.78;;;;;;;6.99;100.00;102253.69;5025923;28;20060;-69
2022/11/27 00:36:37;;;;;;;18.83;4.60;;;;;;;7.13;100.00;102267.97;5028909;28;20055;-71
2022/11/27 00:39:05;;;;;;;15.68;4.70;;;;;;;7.12;100.00;102266.38;5028851;28;20185;-71
2022/11/27 00:41:32;;;;;;;13.57;4.80;;;;;;;7.12;100.00;102256.16;5028288;28;20052;-71
2022/11/27 00:43:59;;;;;;;23.27;4.75;;;;;;;7.17;100.00;102257.91;5027793;28;20060;-70
2022/11/27 00:46:29;;;;;;;15.23;4.18;;;;;;;7.16;100.00;102259.84;5025545;28;20059;-71
2022/11/27 00:49:01;;;;;;;20.92;4.90;;;;;;;7.18;100.00;102265.00;5022787;28;20057;-71
2022/11/27 00:51:29;;;;;;;20.75;6.10;;;;;;;7.16;100.00;102256.31;5024571;28;20922;-70
2022/11/27 00:53:56;;;;;;;15.95;4.65;;;;;;;7.13;100.00;102266.00;5029412;28;20064;-71
2022/11/27 00:56:26;;;;;;;18.05;4.70;;;;;;;7.16;100.00;102261.81;5026953;28;20496;-70
2022/11/27 00:58:53;;;;;;;20.25;5.38;;;;;;;7.19;100.00;102261.91;5028483;28;20053;-70
2022/11/27 01:01:26;;;;;;;15.05;3.17;;;;;;;7.15;100.00;102260.19;5032489;28;20580;-71
2022/11/27 01:03:54;;;;;;;17.85;4.95;;;;;;;7.19;100.00;102261.13;5025925;28;20627;-70
2022/11/27 01:06:21;;;;;;;12.93;4.00;;;;;;;7.18;100.00;102267.75;5026511;28;20156;-71
2022/11/27 01:08:48;;;;;;;14.07;4.47;;;;;;;7.18;100.00;102262.25;5055664;28;20903;-71
2022/11/27 01:11:18;;;;;;;18.90;4.65;;;;;;;7.15;100.00;102260.19;5026658;28;20060;-70
2022/11/27 01:13:45;;;;;;;15.90;4.22;;;;;;;7.14;100.00;102264.06;5026208;28;20679;-70
2022/11/27 01:16:15;;;;;;;14.25;4.28;;;;;;;7.13;100.00;102266.00;5027270;28;20059;-70
2022/11/27 01:18:43;;;;;;;16.17;4.80;;;;;;;7.06;100.00;102267.72;5024494;28;20056;-71
2022/11/27 01:21:12;;;;;;;18.75;4.47;;;;;;;7.10;100.00;102265.91;5040059;28;20059;-70
2022/11/27 01:23:39;;;;;;;19.95;5.43;;;;;;;7.07;100.00;102259.13;5028832;28;20045;-70
2022/11/27 01:26:07;;;;;;;12.98;4.05;;;;;;;7.05;100.00;102257.81;5028876;28;20818;-72
2022/11/27 01:28:34;;;;;;;17.27;5.38;;;;;;;7.01;100.00;102262.41;5030095;28;20952;-72
2022/11/27 01:31:06;;;;;;;14.05;4.18;;;;;;;6.89;100.00;102232.09;5029830;28;20064;-71
2022/11/27 01:33:33;;;;;;;14.23;4.60;;;;;;;6.89;100.00;102234.84;5028592;28;20185;-72
2022/11/27 01:36:02;;;;;;;18.88;4.82;;;;;;;6.94;100.00;102229.94;5030226;28;20607;-70
2022/11/27 01:38:30;;;;;;;17.60;4.80;;;;;;;6.88;100.00;102202.94;5031834;28;20049;-73
2022/11/27 01:41:15;;;;;;;14.73;5.15;;;;;;;6.87;100.00;102209.59;5029083;28;20049;-72
2022/11/27 01:43:46;;;;;;;12.50;4.43;;;;;;;7.00;100.00;102222.28;5030560;28;20041;-71
2022/11/27 01:46:36;;;;;;;14.18;3.97;;;;;;;6.90;100.00;102233.69;5031587;28;20052;-71
2022/11/27 01:49:21;;;;;;;11.75;4.97;;;;;;;6.91;100.00;102218.78;5036892;28;20059;-72
2022/11/27 01:52:07;;;;;;;14.70;4.65;;;;;;;6.97;100.00;102229.25;5029586;28;20371;-72
2022/11/27 01:54:44;;;;;;;14.20;4.00;;;;;;;6.95;100.00;102225.25;5032289;28;20048;-72
2022/11/27 01:57:16;;;;;;;13.10;4.43;;;;;;;6.87;100.00;102213.16;5024814;28;20057;-72
2022/11/27 01:59:45;;;;;;;13.00;5.00;;;;;;;6.91;100.00;102219.59;5029938;28;20055;-72
2022/11/27 02:02:12;;;;;;;13.00;4.72;;;;;;;6.90;100.00;102218.00;5032349;28;20067;-71
2022/11/27 02:04:38;;;;;;;14.18;4.05;;;;;;;6.81;100.00;102202.66;5038141;28;20580;-71
2022/11/27 02:07:05;;;;;;;17.80;5.10;;;;;;;6.82;100.00;102204.31;5030330;28;20049;-71
2022/11/27 02:09:32;;;;;;;17.13;4.63;;;;;;;6.86;100.00;102211.56;5028746;28;20056;-72
2022/11/27 02:12:01;;;;;;;13.15;4.50;;;;;;;6.83;100.00;102208.66;5032966;28;20865;-72
2022/11/27 02:14:31;;;;;;;16.15;4.60;;;;;;;6.83;100.00;102203.16;5055641;28;20049;-72
2022/11/27 02:17:20;;;;;;;11.73;4.70;;;;;;;6.78;100.00;102197.88;5029456;28;20045;-72
2022/11/27 02:20:02;;;;;;;9.73;4.50;;;;;;;6.78;100.00;102193.16;5059694;28;20722;-72
2022/11/27 02:22:41;;;;;;;17.10;4.43;;;;;;;6.73;100.00;102189.81;5027914;28;20041;-71
2022/11/27 02:25:41;;;;;;;15.35;4.47;;;;;;;6.65;100.00;102182.44;5029610;28;20496;-72
2022/11/27 02:28:44;;;;;;;15.00;4.35;;;;;;;6.60;100.00;102191.69;5030117;28;20832;-72
2022/11/27 02:31:46;;;;;;;14.45;4.00;;;;;;;6.59;100.00;102187.34;5023042;28;20060;-70
2022/11/27 02:34:31;;;;;;;15.52;4.40;;;;;;;6.56;100.00;102184.44;5024863;28;20163;-71
2022/11/27 02:37:30;;;;;;;10.48;3.95;;;;;;;6.55;100.00;102186.38;5030199;28;20825;-72
2022/11/27 02:40:32;;;;;;;12.68;4.45;;;;;;;6.61;100.00;102187.78;5027270;28;20055;-72
2022/11/27 02:43:08;;;;;;;10.23;3.90;;;;;;;6.58;100.00;102179.41;5027432;28;20049;-72
2022/11/27 02:45:42;;;;;;;15.20;4.60;;;;;;;6.58;100.00;102176.66;5026362;28;20060;-71
2022/11/27 02:48:12;;;;;;;10.27;3.55;;;;;;;6.51;100.00;102170.91;5030799;28;20847;-70
2022/11/27 02:50:42;;;;;;;14.70;4.85;;;;;;;6.50;100.00;102167.34;5027433;28;20053;-70
2022/11/27 02:53:18;;;;;;;14.63;3.55;;;;;;;6.44;100.00;102165.91;5028823;28;20049;-72
2022/11/27 02:55:47;;;;;;;14.55;4.28;;;;;;;6.46;100.00;102158.16;5029007;28;20210;-70
2022/11/27 02:58:17;;;;;;;11.75;4.07;;;;;;;6.41;100.00;102146.53;5026251;28;20049;-72
2022/11/27 03:00:45;;;;;;;13.00;4.75;;;;;;;6.37;100.00;102143.66;5044811;28;20049;-69
2022/11/27 03:03:17;;;;;;;18.52;5.45;;;;;;;6.35;100.00;102150.63;5050354;28;20045;-72
2022/11/27 03:05:46;;;;;;;11.88;4.03;;;;;;;6.31;100.00;102147.72;5049973;28;20052;-69
2022/11/27 03:08:16;;;;;;;15.80;4.07;;;;;;;6.30;100.00;102148.06;5051015;28;20068;-70
2022/11/27 03:10:55;;;;;;;17.92;5.18;;;;;;;6.21;100.00;102142.63;5051147;28;20516;-69
2022/11/27 03:13:22;;;;;;;13.98;4.70;;;;;;;6.17;100.00;102132.66;5048453;28;20041;-69
2022/11/27 03:15:53;;;;;;;19.77;5.63;;;;;;;6.15;100.00;102134.91;5050906;28;20049;-69
2022/11/27 03:18:33;;;;;;;13.63;4.43;;;;;;;6.07;100.00;102122.03;5050044;28;20712;-69
2022/11/27 03:21:17;;;;;;;12.70;4.07;;;;;;;6.02;100.00;102119.47;5049820;28;20053;-72
2022/11/27 03:23:44;;;;;;;18.10;5.13;;;;;;;6.01;100.00;102104.13;5043404;28;20414;-71
2022/11/27 03:26:11;;;;;;;11.77;4.28;;;;;;;5.98;100.00;102093.81;5048864;28;20048;-71
2022/11/27 03:28:38;;;;;;;14.07;4.43;;;;;;;5.94;100.00;102103.88;5049703;28;20498;-71
2022/11/27 03:31:04;;;;;;;16.67;4.82;;;;;;;5.96;100.00;102104.31;5080377;28;20056;-71
2022/11/27 03:33:31;;;;;;;25.00;5.60;;;;;;;5.95;100.00;102102.72;5047895;28;20052;-72
2022/11/27 03:35:58;;;;;;;11.80;3.95;;;;;;;5.95;100.00;102103.53;5053560;28;20045;-71
2022/11/27 03:38:24;;;;;;;15.85;4.45;;;;;;;5.96;100.00;102116.13;5049067;28;20596;-71
2022/11/27 03:41:04;;;;;;;12.80;4.15;;;;;;;6.02;100.00;102113.97;5048472;28;20052;-71
2022/11/27 03:43:40;;;;;;;12.50;4.43;;;;;;;6.02;100.00;102116.72;5048578;28;20044;-71
2022/11/27 03:46:18;;;;;;;15.85;4.97;;;;;;;6.05;100.00;102118.81;5049751;28;20565;-71
2022/11/27 03:49:07;;;;;;;14.50;4.70;;;;;;;6.05;100.00;102119.63;5051000;28;20068;-71
2022/11/27 03:51:40;;;;;;;11.32;3.90;;;;;;;6.11;100.00;102114.75;5043917;28;20052;-71
2022/11/27 03:54:06;;;;;;;14.65;4.72;;;;;;;6.11;100.00;102123.78;5048841;28;20060;-70
2022/11/27 03:56:36;;;;;;;11.88;4.88;;;;;;;6.11;100.00;102126.53;5052053;28;20049;-70
2022/11/27 03:59:12;;;;;;;18.98;4.65;;;;;;;6.14;100.00;102122.31;5057172;28;20051;-69
2022/11/27 04:01:39;;;;;;;19.63;5.63;;;;;;;6.17;100.00;102116.16;5040944;28;20060;-71
2022/11/27 04:04:06;;;;;;;18.02;7.70;;;;;;;6.20;100.00;102116.28;5049364;28;20056;-71
2022/11/27 04:06:33;;;;;;;15.55;5.75;;;;;;;6.21;100.00;102106.09;5051293;28;20048;-71
2022/11/27 04:08:59;;;;;;;16.65;5.80;;;;;;;6.21;100.00;102103.34;5048837;28;20053;-71
2022/11/27 04:11:26;;;;;;;16.45;5.03;;;;;;;6.19;100.00;102098.19;5046059;28;20049;-69
2022/11/27 04:13:53;;;;;;;15.55;4.90;;;;;;;6.21;100.00;102081.38;5043861;28;20064;-71
2022/11/27 04:16:19;;;;;;;16.95;5.53;;;;;;;6.21;100.00;102075.88;5048871;28;20060;-71
2022/11/27 04:18:46;;;;;;;15.15;4.55;;;;;;;6.20;100.00;102066.81;5048391;28;20057;-70
2022/11/27 04:21:12;;;;;;;17.27;4.47;;;;;;;6.15;100.00;102053.28;5049917;28;20410;-70
2022/11/27 04:23:39;;;;;;;15.05;4.82;;;;;;;6.17;100.00;102051.00;5042008;28;20083;-71
2022/11/27 04:26:06;;;;;;;16.38;4.57;;;;;;;6.27;100.00;102060.75;5048024;28;20068;-69
2022/11/27 04:28:32;;;;;;;15.10;5.05;;;;;;;6.27;100.00;102063.50;5048813;28;20059;-70
2022/11/27 04:30:59;;;;;;;18.25;5.47;;;;;;;6.34;100.00;102061.84;5049105;28;20049;-71
2022/11/27 04:33:26;;;;;;;16.65;5.38;;;;;;;6.42;100.00;102051.91;5039581;28;20044;-71
2022/11/27 04:35:52;;;;;;;20.35;5.72;;;;;;;6.47;100.00;102047.00;5048529;28;20055;-71
2022/11/27 04:38:20;;;;;;;17.95;5.97;;;;;;;6.42;100.00;102032.66;5047832;28;20416;-71
2022/11/27 04:40:47;;;;;;;15.60;6.00;;;;;;;6.56;100.00;102033.19;5047330;28;20061;-71
2022/11/27 04:43:13;;;;;;;17.52;5.25;;;;;;;6.63;100.00;102033.44;5048235;28;20532;-71
2022/11/27 04:45:40;;;;;;;12.75;3.97;;;;;;;6.66;100.00;102041.00;5048824;28;20486;-71
2022/11/27 04:48:06;;;;;;;7.47;2.30;;;;;;;6.75;100.00;102050.00;5050824;28;20071;-70
2022/11/27 04:50:33;;;;;;;18.75;5.13;;;;;;;6.81;100.00;102037.59;5047746;28;20052;-71
2022/11/27 04:53:00;;;;;;;14.20;4.85;;;;;;;6.86;100.00;102021.72;5046980;28;20055;-70
2022/11/27 04:55:26;;;;;;;17.67;5.45;;;;;;;6.87;100.00;102015.06;5045484;28;20048;-70
2022/11/27 04:57:53;;;;;;;20.50;6.10;;;;;;;6.89;100.00;102000.94;5051847;28;20048;-71
2022/11/27 05:00:20;;;;;;;17.38;5.45;;;;;;;6.90;100.00;102013.56;5046647;28;20056;-70
2022/11/27 05:02:46;;;;;;;16.65;5.15;;;;;;;6.90;100.00;102003.38;5048175;28;20053;-70
2022/11/27 05:05:13;;;;;;;17.58;5.88;;;;;;;6.97;100.00;101981.59;5047792;28;20084;-71
2022/11/27 05:07:39;;;;;;;14.77;5.00;;;;;;;7.08;100.00;101993.75;5047812;28;20060;-70
2022/11/27 05:10:07;;;;;;;16.55;4.68;;;;;;;7.10;100.00;101990.66;5048472;28;20463;-71
2022/11/27 05:12:33;;;;;;;13.13;4.85;;;;;;;7.16;100.00;102000.28;5044598;28;20051;-71
2022/11/27 05:15:00;;;;;;;19.02;5.72;;;;;;;7.19;100.00;101991.34;5048517;28;20088;-71
2022/11/27 05:17:30;;;;;;;19.13;5.45;;;;;;;7.19;100.00;101996.88;5049331;28;20055;-71
2022/11/27 05:19:56;;;;;;;18.02;5.35;;;;;;;7.25;100.00;102000.97;5047756;28;20060;-71
2022/11/27 05:22:23;;;;;;;19.25;5.10;;;;;;;7.26;100.00;101989.63;5047920;28;20048;-70
2022/11/27 05:24:49;;;;;;;19.65;5.22;;;;;;;7.25;100.00;101993.53;5046381;28;20694;-71
2022/11/27 05:27:16;;;;;;;18.23;4.45;;;;;;;7.27;100.00;101993.19;5047245;28;20067;-70
2022/11/27 05:29:42;;;;;;;15.50;5.43;;;;;;;7.31;100.00;101991.34;5046938;28;20056;-70
2022/11/27 05:32:09;;;;;;;17.83;5.13;;;;;;;7.31;100.00;101986.66;5047382;28;20052;-71
2022/11/27 05:34:35;;;;;;;17.15;4.82;;;;;;;7.23;100.00;101973.00;5047651;28;20056;-69
2022/11/27 05:37:02;;;;;;;16.02;5.32;;;;;;;7.28;100.00;101983.75;5080226;28;20053;-70
2022/11/27 05:39:28;;;;;;;15.50;4.10;;;;;;;7.29;100.00;101982.63;5050511;28;20044;-71
2022/11/27 05:41:55;;;;;;;14.13;4.65;;;;;;;7.31;100.00;101975.63;5040508;28;20047;-70
2022/11/27 05:44:21;;;;;;;19.05;4.85;;;;;;;7.33;100.00;101978.03;5043897;28;20048;-71
2022/11/27 05:46:48;;;;;;;13.27;4.88;;;;;;;7.33;100.00;101978.81;5050243;28;20055;-71
2022/11/27 05:49:15;;;;;;;17.20;5.10;;;;;;;7.26;100.00;101966.81;5047853;28;20103;-69
2022/11/27 05:51:42;;;;;;;15.25;4.53;;;;;;;7.32;100.00;101974.47;5040411;28;20049;-71
2022/11/27 05:54:16;;;;;;;17.88;5.35;;;;;;;7.35;100.00;101968.28;5045747;28;20316;-70
2022/11/27 05:56:42;;;;;;;18.80;6.47;;;;;;;7.38;100.00;101972.28;5047438;28;20049;-69
2022/11/27 05:59:09;;;;;;;16.63;5.55;;;;;;;7.36;100.00;101963.59;5046880;28;20456;-69
2022/11/27 06:01:36;;;;;;;18.08;5.13;;;;;;;7.34;100.00;101965.88;5046885;28;20096;-70
2022/11/27 06:04:03;;;;;;;23.40;5.93;;;;;;;7.32;100.00;101960.72;5047572;28;20509;-70
2022/11/27 06:06:29;;;;;;;13.05;5.07;;;;;;;7.28;100.00;101959.00;5047763;28;20502;-71
2022/11/27 06:08:56;;;;;;;16.88;4.97;;;;;;;7.31;100.00;101958.28;5049503;28;20056;-69
2022/11/27 06:11:23;;;;;;;19.20;4.75;;;;;;;7.29;100.00;101955.09;5048300;28;20083;-70
2022/11/27 06:13:50;;;;;;;18.30;5.20;;;;;;;7.20;100.00;101944.22;5050998;28;20049;-70
2022/11/27 06:16:19;;;;;;;16.55;4.85;;;;;;;7.25;100.00;101954.16;5049450;28;20060;-69
2022/11/27 06:18:49;;;;;;;16.85;5.40;;;;;;;7.28;100.00;101954.28;5049149;28;20053;-71
2022/11/27 06:21:16;;;;;;;17.52;4.80;;;;;;;7.24;100.00;101941.56;5048723;28;20798;-70
2022/11/27 06:23:43;;;;;;;15.90;5.22;;;;;;;7.34;100.00;101941.09;5049350;28;20124;-70
2022/11/27 06:26:18;;;;;;;15.32;5.20;;;;;;;7.29;100.00;101946.84;5050567;28;20064;-70
2022/11/27 06:28:46;;;;;;;18.73;5.60;;;;;;;7.28;100.00;101942.47;5051075;28;20057;-70
2022/11/27 06:31:15;;;;;;;17.38;5.07;;;;;;;7.26;100.00;101944.78;5049524;28;20520;-71
2022/11/27 06:33:45;;;;;;;17.90;5.35;;;;;;;7.23;100.00;101942.72;5049463;28;20049;-70
2022/11/27 06:36:12;;;;;;;18.27;6.05;;;;;;;7.19;100.00;101922.53;5085875;28;20072;-70
2022/11/27 06:38:38;;;;;;;19.27;5.47;;;;;;;7.26;100.00;101936.53;5050018;28;20128;-69
2022/11/27 06:41:10;;;;;;;18.75;5.10;;;;;;;7.21;100.00;101934.81;5050565;28;20056;-71
2022/11/27 06:43:37;;;;;;;17.95;5.65;;;;;;;7.20;100.00;101943.41;5056181;28;20430;-70
2022/11/27 06:46:05;;;;;;;18.63;6.05;;;;;;;7.19;100.00;101939.06;5084090;28;20564;-70
2022/11/27 06:48:33;;;;;;;14.40;5.82;;;;;;;7.18;100.00;101940.19;5049641;28;20049;-70
2022/11/27 06:51:05;;;;;;;17.17;5.10;;;;;;;7.19;100.00;101930.78;5055811;28;20045;-71
2022/11/27 06:53:34;;;;;;;13.65;4.80;;;;;;;7.22;100.00;101936.41;5045503;28;20049;-70
2022/11/27 06:56:02;;;;;;;14.52;4.85;;;;;;;7.20;100.00;101938.72;5039382;28;20079;-70
2022/11/27 06:58:29;;;;;;;13.88;5.05;;;;;;;7.20;100.00;101921.38;5030544;28;20057;-69
2022/11/27 07:01:01;;;;;;;18.33;5.20;;;;;;;7.19;100.00;101928.03;5029614;28;20054;-69
2022/11/27 07:03:28;;;;;;;16.13;4.90;;;;;;;7.21;100.00;101922.97;5036760;28;20817;-71
2022/11/27 07:05:58;;;;;;;18.75;5.60;;;;;;;7.19;100.00;101925.28;5048618;28;20064;-70
2022/11/27 07:08:25;;;;;;;16.67;6.13;;;;;;;7.21;100.00;101917.47;5049147;28;20061;-70
2022/11/27 07:10:51;;;;;;;13.77;4.93;;;;;;;7.22;100.00;101914.38;5049577;28;20049;-68
2022/11/27 07:13:18;;;;;;;16.13;5.65;;;;;;;7.28;100.00;101912.19;5048304;28;20114;-70
2022/11/27 07:15:45;;;;;;;18.50;6.20;;;;;;;7.31;100.00;101908.75;5049876;28;20053;-70
2022/11/27 07:18:11;;;;;;;17.10;5.78;;;;;;;7.37;100.00;101905.41;5048224;28;20502;-70
2022/11/27 07:20:38;;;;;;;22.98;5.82;;;;;;;7.42;100.00;101910.69;5052474;28;20641;-68
2022/11/27 07:23:05;;;;;;;16.33;5.60;;;;;;;7.46;100.00;101908.81;5048294;28;20048;-68
2022/11/27 07:25:32;;;;;;;18.25;5.53;;;;;;;7.53;100.00;101906.28;5055454;28;20139;-68
2022/11/27 07:27:59;;;;;;;18.58;5.45;;;;;;;7.58;100.00;101906.06;5048913;28;20053;-70
2022/11/27 07:30:25;;;;;;;18.83;6.30;;;;;;;7.58;100.00;101896.97;5049809;28;20159;-68
2022/11/27 07:32:52;;;;;;;17.77;6.50;;;;;;;7.68;100.00;101899.25;5049917;28;20048;-69
2022/11/27 07:35:18;;;;;;;17.20;5.70;;;;;;;7.75;100.00;101902.22;5049397;28;20056;-68
2022/11/27 07:37:45;;;;;;;15.80;5.00;;;;;;;7.81;100.00;101887.03;5049123;28;20048;-68
2022/11/27 07:40:12;;;;;;;13.25;5.05;;;;;;;7.86;100.00;101882.06;5048765;28;20405;-69
2022/11/27 07:42:40;;;;;;;17.15;5.65;;;;;;;7.93;100.00;101889.72;5047606;28;20063;-70
2022/11/27 07:45:07;;;;;;;17.38;5.50;;;;;;;7.93;100.00;101875.94;5052259;28;20053;-68
2022/11/27 07:47:34;;;;;;;14.18;5.10;;;;;;;8.02;100.00;101885.69;5047837;28;20055;-70
2022/11/27 07:50:01;;;;;;;16.08;5.75;;;;;;;8.07;100.00;101884.63;5039696;28;20053;-69
2022/11/27 07:52:27;;;;;;;18.17;5.90;;;;;;;8.10;100.00;101886.66;5050768;28;20064;-68
2022/11/27 07:54:54;;;;;;;15.73;5.93;;;;;;;8.13;100.00;101893.44;5047928;28;20056;-70
2022/11/27 07:57:20;;;;;;;18.83;6.40;;;;;;;8.07;100.00;101873.59;5047875;28;20052;-68
2022/11/27 07:59:47;;;;;;;16.55;5.93;;;;;;;8.19;100.00;101875.47;5048168;28;20072;-70
2022/11/27 08:02:14;;;;;;;16.73;5.93;;;;;;;8.14;100.00;101865.53;5049399;28;20052;-70
2022/11/27 08:04:40;;;;;;;17.33;5.88;;;;;;;8.26;100.00;101868.22;5048228;28;20049;-70
2022/11/27 08:07:07;;;;;;;15.45;5.60;;;;;;;8.32;100.00;101866.81;5029354;28;20061;-69
2022/11/27 08:09:34;;;;;;;19.98;5.50;;;;;;;8.36;100.00;101861.38;5024655;28;20064;-71
2022/11/27 08:12:00;;;;;;;18.27;6.55;;;;;;;8.36;100.00;101850.34;5033170;28;20067;-71
2022/11/27 08:14:27;;;;;;;20.08;5.93;;;;;;;8.44;100.00;101849.38;5048975;28;20060;-70
2022/11/27 08:16:54;;;;;;;15.32;5.72;;;;;;;8.47;100.00;101852.22;5050278;28;20404;-70
2022/11/27 08:19:21;;;;;;;15.70;5.47;;;;;;;8.53;100.00;101859.09;5051047;28;20075;-71
2022/11/27 08:21:47;;;;;;;15.57;6.03;;;;;;;8.59;100.00;101854.09;5056434;28;20071;-72
2022/11/27 08:24:14;;;;;;;14.40;5.53;;;;;;;8.59;100.00;101845.81;5048389;28;20055;-67
2022/11/27 08:26:40;;;;;;;13.35;5.57;;;;;;;8.71;100.00;101848.50;5044575;28;20053;-69
2022/11/27 08:29:11;;;;;;;16.10;5.43;;;;;;;8.76;100.00;101842.69;5047563;28;20484;-69
2022/11/27 08:31:38;;;;;;;14.65;5.63;;;;;;;8.75;100.00;101839.16;5050877;28;20477;-71
2022/11/27 08:34:05;;;;;;;12.82;4.88;;;;;;;8.83;100.00;101831.81;5053257;28;20056;-71
2022/11/27 08:36:31;;;;;;;13.50;4.53;;;;;;;8.86;100.00;101825.59;5048254;28;20059;-70
2022/11/27 08:38:58;;;;;;;7.75;3.20;;;;;;;8.94;100.00;101839.19;5047995;28;20045;-71
2022/11/27 08:41:24;;;;;;;8.75;2.83;;;;;;;8.96;100.00;101828.59;5048701;28;20048;-71
2022/11/27 08:43:51;;;;;;;10.63;4.65;;;;;;;9.03;100.00;101837.03;5046704;28;20060;-71
2022/11/27 08:46:17;;;;;;;19.05;5.53;;;;;;;9.10;100.00;101830.88;5048423;28;20064;-71
2022/11/27 08:48:44;;;;;;;5.88;2.47;;;;;;;9.12;100.00;101834.91;5079190;28;20057;-69
2022/11/27 08:51:14;;;;;;;14.30;4.93;;;;;;;9.28;100.00;101823.78;5047104;28;20053;-71
2022/11/27 08:53:43;;;;;;;14.90;5.20;;;;;;;9.30;100.00;101821.44;5048381;28;20059;-71
2022/11/27 08:56:22;;;;;;;16.02;4.85;;;;;;;9.36;100.00;101822.78;5046778;28;20428;-71
2022/11/27 08:58:49;;;;;;;12.88;3.90;;;;;;;9.32;100.00;101839.25;5046771;28;20527;-71
2022/11/27 09:01:19;;;;;;;17.83;5.53;;;;;;;9.40;100.00;101827.22;5050438;28;20045;-71
2022/11/27 09:03:45;;;;;;;18.92;5.47;;;;;;;9.41;100.00;101823.28;5048368;28;20059;-72
2022/11/27 09:06:15;;;;;;;16.40;5.90;;;;;;;9.49;100.00;101821.47;5047091;28;20052;-71
2022/11/27 09:08:43;;;;;;;12.50;4.22;;;;;;;9.44;100.00;101822.56;5048200;28;20052;-68
2022/11/27 09:11:12;;;;;;;16.10;5.43;;;;;;;9.53;100.00;101830.63;5044376;28;20580;-71
2022/11/27 09:13:39;;;;;;;18.73;5.53;;;;;;;9.61;100.00;101824.06;5046103;28;20394;-70
2022/11/27 09:16:10;;;;;;;15.57;5.38;;;;;;;9.59;100.00;101809.84;5047600;28;20053;-71
2022/11/27 09:18:36;;;;;;;10.98;3.30;;;;;;;9.66;100.00;101816.28;5047727;28;20053;-71
2022/11/27 09:21:06;;;;;;;14.65;5.75;;;;;;;9.60;100.00;101808.66;5046189;28;20056;-71
2022/11/27 09:23:33;;;;;;;15.27;4.75;;;;;;;9.63;100.00;101803.22;5048037;28;20057;-71
2022/11/27 09:26:01;;;;;;;14.45;5.05;;;;;;;9.74;100.00;101812.53;5047687;28;20048;-70
2022/11/27 09:28:28;;;;;;;12.93;4.50;;;;;;;9.77;100.00;101805.47;5047820;28;20486;-71
2022/11/27 09:30:59;;;;;;;16.83;4.90;;;;;;;9.74;100.00;101801.47;5048616;28;20631;-71
2022/11/27 09:33:27;;;;;;;15.70;4.90;;;;;;;9.78;100.00;101801.53;5047422;28;20131;-71
2022/11/27 09:35:54;;;;;;;14.10;4.90;;;;;;;9.77;100.00;101794.41;5048126;28;20056;-71
2022/11/27 09:38:22;;;;;;;10.90;4.07;;;;;;;9.79;100.00;101794.84;5047717;28;20060;-72
2022/11/27 09:40:51;;;;;;;15.45;4.95;;;;;;;9.81;100.00;101787.78;5048452;28;20055;-71
2022/11/27 09:43:26;;;;;;;15.55;4.07;;;;;;;9.82;100.00;101786.59;5058500;28;20080;-70
2022/11/27 09:45:59;;;;;;;13.13;4.05;;;;;;;9.85;100.00;101787.84;5082496;28;20049;-71
2022/11/27 09:48:47;;;;;;;13.82;4.45;;;;;;;9.95;100.00;101784.47;5051530;28;20045;-71
2022/11/27 09:51:30;;;;;;;14.02;4.47;;;;;;;10.00;100.00;101775.88;5050823;28;20061;-71
2022/11/27 09:54:04;;;;;;;10.30;3.55;;;;;;;10.09;100.00;101780.03;5050784;28;20052;-72
2022/11/27 09:56:34;;;;;;;11.00;3.97;;;;;;;10.16;100.00;101785.69;5050353;28;20092;-70
2022/11/27 09:59:02;;;;;;;11.55;4.45;;;;;;;10.26;100.00;101785.06;5050853;28;20049;-71
2022/11/27 10:01:32;;;;;;;12.70;4.50;;;;;;;10.33;100.00;101785.19;5050907;28;20543;-70
2022/11/27 10:04:13;;;;;;;13.68;4.40;;;;;;;10.44;97.36;101775.06;5053128;28;20553;-71
2022/11/27 10:07:00;;;;;;;10.90;4.22;;;;;;;10.55;97.07;101778.03;5054162;28;20127;-72
2022/11/27 10:09:48;;;;;;;16.42;4.15;;;;;;;10.67;97.19;101774.25;5038852;28;20416;-71
2022/11/27 10:12:57;;;;;;;12.18;3.05;;;;;;;10.71;93.80;101778.69;5051117;28;20053;-71
2022/11/27 10:15:26;;;;;;;14.75;4.00;;;;;;;10.84;93.54;101768.19;5042334;28;20064;-70
2022/11/27 10:18:07;;;;;;;8.07;3.20;;;;;;;10.84;88.13;101771.75;5050599;28;20048;-73
2022/11/27 10:20:39;;;;;;;12.93;3.70;;;;;;;10.97;88.63;101764.81;5050367;28;20416;-72
2022/11/27 10:23:24;;;;;;;10.18;3.58;;;;;;;10.97;85.35;101770.34;5050199;28;20139;-73
2022/11/27 10:25:55;;;;;;;8.32;3.13;;;;;;;11.02;84.03;101769.22;5054683;28;20049;-72
2022/11/27 10:28:44;;;;;;;11.00;3.70;;;;;;;11.10;83.62;101762.63;5049346;28;20056;-72
2022/11/27 10:31:17;;;;;;;9.93;3.30;;;;;;;11.15;85.04;101765.06;5049816;28;20052;-72
2022/11/27 10:33:50;;;;;;;14.35;4.03;;;;;;;11.19;87.56;101758.38;5051039;28;20095;-70
2022/11/27 10:36:28;;;;;;;11.80;4.15;;;;;;;11.34;88.15;101762.91;5050137;28;20494;-70
2022/11/27 10:38:57;;;;;;;13.77;3.88;;;;;;;11.27;80.59;101753.75;5052655;28;20074;-71
2022/11/27 10:41:29;;;;;;;12.70;3.65;;;;;;;11.32;81.42;101753.41;5049124;28;20060;-71
2022/11/27 10:44:28;;;;;;;11.05;3.53;;;;;;;11.43;82.00;101754.31;5043193;28;20061;-71
2022/11/27 10:47:01;;;;;;;11.15;3.50;;;;;;;11.45;80.50;101750.00;5050385;28;20058;-71
2022/11/27 10:49:28;;;;;;;9.57;3.53;;;;;;;11.43;79.08;101748.78;5049182;28;20052;-70
2022/11/27 10:51:55;;;;;;;12.18;3.33;;;;;;;11.39;77.59;101750.72;5052864;28;20052;-69
2022/11/27 10:54:36;;;;;;;3.65;1.48;;;;;;;11.34;74.81;101739.97;5054629;28;20052;-73
2022/11/27 10:57:27;;;;;;;5.38;2.15;;;;;;;11.31;74.10;101737.97;5050946;28;20049;-71
2022/11/27 11:00:06;;;;;;;8.77;3.03;;;;;;;11.47;76.14;101730.25;5047813;28;20052;-71
2022/11/27 11:02:37;;;;;;;10.18;3.38;;;;;;;11.45;76.00;101736.16;5046876;28;20049;-72
2022/11/27 11:05:10;;;;;;;4.10;2.33;;;;;;;11.39;75.30;101712.72;5044946;28;20049;-72
2022/11/27 11:08:05;;;;;;;8.02;2.85;;;;;;;11.43;77.64;101709.97;5039830;28;20045;-70
2022/11/27 11:10:37;;;;;;;5.90;3.33;;;;;;;11.40;74.84;101719.03;5045933;28;20057;-71
2022/11/27 11:13:13;;;;;;;8.98;2.90;;;;;;;11.44;74.04;101708.81;5046046;28;20049;-71
2022/11/27 11:16:24;;;;;;;7.60;3.40;;;;;;;11.48;75.39;101701.34;5049531;28;20063;-71
2022/11/27 11:18:57;;;;;;;11.18;3.47;;;;;;;11.41;77.22;101690.94;5034428;28;20465;-71
2022/11/27 11:21:31;;;;;;;7.72;3.15;;;;;;;11.51;77.17;101689.50;5055600;28;20136;-71
2022/11/27 11:24:13;;;;;;;10.00;3.38;;;;;;;11.50;77.15;101685.91;5031661;28;20064;-70
2022/11/27 11:26:46;;;;;;;11.48;3.30;;;;;;;11.42;73.27;101677.91;5029025;28;20096;-71
2022/11/27 11:29:43;;;;;;;8.93;3.30;;;;;;;11.49;74.79;101686.28;5030901;28;20192;-72
2022/11/27 11:32:15;;;;;;;8.85;2.95;;;;;;;11.50;75.16;101676.78;5031713;28;20069;-71
2022/11/27 11:34:50;;;;;;;10.30;3.35;;;;;;;11.54;75.61;101667.34;5029197;28;20041;-72